LiveATC.Net - Listen to live air traffic control over the Internet!


ICAO: KHYA  IATA: HYA   Airport: Cape Cod Gateway Airport
City: Hyannis   State/Province: Massachusetts
Country: United States   Continent: North America
KHYA METAR Weather: KHYA 221856Z 01007KT 10SM OVC010 23/20 A2999 RMK AO2 SLP157 T02280200
KHYA ADS-B Flight Tracking  (ADSBExchange)
KHYA Flight Activity (FlightAware)
KHYA Airport Info   (iFlightPlanner)
KHYA VFR Sectional Chart   (iFlightPlanner) 
KHYA IFR Low Altitude Chart   (iFlightPlanner) 
KHYA IFR High Altitude Chart   (iFlightPlanner) 

Boston Approach (Cape North)
Feed Status: UP   Listeners: 0
Listen in your browser - HTML5 player (in browser, HTML5)
Click here to listen with your own player (launches your MP3 player)
Archive Access: Boston Approach (Cape North)
FacilityFrequency
Boston Approach (Cape North Arrival)118.200

NOTICE

Unauthorized use prohibited. See LiveATC.net Terms of Service


Airport/ARTCC Code
Frequency Search
(e.g., 124.400, 128.75)
Site-wide search
 


Browse Feeds
Top 50 Feeds
HF Oceanic Feeds
Coverage Map
Bad Weather Areas

LiveATC FAQ

Increase Coverage

Contact LiveATC.net
Press Inquiries

LiveATC on iPhone
LiveATC on Android

LiveATC Mobile
(Mobile browser)

ATC Audio Archives
Interesting Recordings

LiveATC Forums


Home Page
About LiveATC.net


Terms of Use
Privacy Policy

AIRMETs/SIGMETs

FAA Airport Status
NAS Status
Arrival Demand


Server Software By:
Icecast.org
Liquidsoap